Time;durP1;ratioP1;P1;durP2;ratioP2;P2;SDS_P1;SDS_P2;PMS_P1;PMS_P2;Temp;Humidity;BMP_temperature;BMP_pressure;BME280_temperature;BME280_humidity;BME280_pressure;Samples;Min_cycle;Max_cycle;Signal;HPM_P1;HPM_P2
2023/12/20 00:01:57;;;;;;;7.60;2.80;;;;;;;18.92;29.54;100017.38;105083;1258;61792;-57
2023/12/20 00:04:25;;;;;;;13.40;9.80;;;;;;;18.90;29.53;100010.45;105094;1262;60812;-59
2023/12/20 00:06:52;;;;;;;16.00;9.90;;;;;;;18.91;29.58;100012.08;105210;1256;63697;-58
2023/12/20 00:09:20;;;;;;;8.70;4.00;;;;;;;18.92;29.45;100009.54;105187;1259;61377;-55
2023/12/20 00:11:48;;;;;;;14.50;8.90;;;;;;;18.93;29.42;100004.05;105160;1256;64355;-57
2023/12/20 00:14:15;;;;;;;15.10;9.10;;;;;;;18.91;29.47;100004.45;104951;1258;60504;-58
2023/12/20 00:16:43;;;;;;;8.40;4.00;;;;;;;18.90;29.53;100003.16;104994;1255;60465;-61
2023/12/20 00:19:11;;;;;;;12.40;7.60;;;;;;;18.92;29.54;100001.88;105137;1256;64813;-59
2023/12/20 00:21:39;;;;;;;13.60;8.70;;;;;;;18.92;29.43;99998.55;105195;1261;60456;-59
2023/12/20 00:24:07;;;;;;;8.00;3.40;;;;;;;18.91;29.44;99995.23;105351;1256;62543;-59
2023/12/20 00:26:34;;;;;;;13.50;8.70;;;;;;;18.93;29.50;99988.60;105121;1261;60376;-56
2023/12/20 00:29:02;;;;;;;9.90;4.20;;;;;;;18.92;29.57;99986.22;105152;1256;60487;-60
2023/12/20 00:31:30;;;;;;;13.00;8.40;;;;;;;18.98;29.48;99982.84;105447;1256;63653;-60
2023/12/20 00:33:57;;;;;;;12.80;8.30;;;;;;;19.00;29.36;99983.80;105573;1260;60399;-60
2023/12/20 00:36:25;;;;;;;14.20;8.90;;;;;;;19.03;29.39;99978.46;105205;1256;64177;-59
2023/12/20 00:38:53;;;;;;;9.80;4.50;;;;;;;19.03;29.51;99977.30;105178;1258;60564;-60
2023/12/20 00:41:21;;;;;;;12.10;7.70;;;;;;;19.05;29.36;99970.81;105727;1259;60477;-58
2023/12/20 00:43:48;;;;;;;8.90;4.00;;;;;;;19.04;29.35;99967.39;105149;1261;64860;-57
2023/12/20 00:46:16;;;;;;;11.50;7.80;;;;;;;19.03;29.24;99962.66;105912;1260;60437;-59
2023/12/20 00:48:45;;;;;;;10.90;3.80;;;;;;;19.02;29.27;99962.33;105093;1258;62481;-58
2023/12/20 00:51:13;;;;;;;12.50;7.80;;;;;;;19.02;29.28;99959.13;105241;1257;60533;-58
2023/12/20 00:53:41;;;;;;;10.30;3.80;;;;;;;19.00;29.29;99952.25;105224;1260;61695;-61
2023/12/20 00:56:08;;;;;;;10.70;7.60;;;;;;;19.02;29.25;99946.66;105128;1256;63612;-60
2023/12/20 00:58:36;;;;;;;9.80;6.80;;;;;;;19.05;29.20;99942.88;105098;1261;60431;-59
2023/12/20 01:01:03;;;;;;;11.30;7.80;;;;;;;19.05;29.24;99931.18;104972;1260;62508;-51
2023/12/20 01:03:31;;;;;;;8.20;3.20;;;;;;;19.08;29.43;99922.04;105648;1254;60655;-59
2023/12/20 01:05:59;;;;;;;11.30;7.20;;;;;;;19.13;29.31;99922.48;105668;1258;59364;-55
2023/12/20 01:08:27;;;;;;;7.20;2.90;;;;;;;19.17;29.15;99915.34;105776;1253;72564;-59
2023/12/20 01:10:55;;;;;;;13.50;7.50;;;;;;;19.20;29.08;99914.39;105279;1256;61330;-60
2023/12/20 01:13:23;;;;;;;10.20;3.90;;;;;;;19.23;29.07;99912.70;105768;1260;62473;-58
2023/12/20 01:15:51;;;;;;;12.50;7.00;;;;;;;19.25;29.02;99915.91;105310;1254;61024;-58
2023/12/20 01:18:19;;;;;;;11.10;6.90;;;;;;;19.24;29.08;99912.79;105307;1258;60760;-60
2023/12/20 01:20:47;;;;;;;10.30;3.50;;;;;;;19.22;28.97;99905.83;105294;1253;64970;-58
2023/12/20 01:23:14;;;;;;;12.70;7.60;;;;;;;19.19;29.17;99905.10;105254;1253;61434;-60
2023/12/20 01:25:43;;;;;;;12.00;3.80;;;;;;;19.19;29.23;99896.20;105312;1256;71816;-61
2023/12/20 01:28:10;;;;;;;11.60;7.40;;;;;;;19.20;29.11;99893.08;105463;1258;60505;-58
2023/12/20 01:30:38;;;;;;;7.90;3.00;;;;;;;19.22;29.00;99884.65;105319;1253;60477;-59
2023/12/20 01:33:06;;;;;;;14.10;7.40;;;;;;;19.25;29.00;99880.34;105409;1253;63716;-60
2023/12/20 01:35:34;;;;;;;13.60;8.30;;;;;;;19.24;28.92;99883.64;105562;1258;60404;-57
2023/12/20 01:38:01;;;;;;;8.60;3.40;;;;;;;19.24;28.95;99890.34;105258;1258;62458;-57
2023/12/20 01:40:29;;;;;;;14.40;9.00;;;;;;;19.25;28.94;99890.48;105274;1255;60540;-59
2023/12/20 01:43:00;;;;;;;13.50;8.70;;;;;;;19.23;29.06;99894.64;105286;1253;60455;-59
2023/12/20 01:45:28;;;;;;;7.70;3.00;;;;;;;19.22;29.13;99892.29;105759;1257;65511;-67
2023/12/20 01:47:57;;;;;;;14.90;8.90;;;;;;;19.22;29.28;99889.79;105261;1260;60384;-60
2023/12/20 01:50:25;;;;;;;13.20;9.00;;;;;;;19.21;29.18;99885.34;105913;1258;62437;-59
2023/12/20 01:52:55;;;;;;;14.10;9.00;;;;;;;19.20;29.35;99881.67;105821;1261;60552;-61
2023/12/20 01:55:23;;;;;;;10.90;4.10;;;;;;;19.21;29.40;99870.77;105959;1258;60451;-60
2023/12/20 01:57:51;;;;;;;13.50;9.20;;;;;;;19.21;29.34;99873.70;105324;1256;63690;-60
2023/12/20 02:00:22;;;;;;;13.60;9.50;;;;;;;19.20;29.27;99874.63;105237;1253;61290;-60
2023/12/20 02:02:50;;;;;;;11.70;4.60;;;;;;;19.18;29.43;99872.31;106022;1260;63684;-58
2023/12/20 02:05:18;;;;;;;15.70;10.30;;;;;;;19.18;29.48;99870.01;105274;1256;60602;-60
2023/12/20 02:07:46;;;;;;;9.40;3.60;;;;;;;19.18;29.49;99868.58;105220;1261;60464;-60
2023/12/20 02:10:14;;;;;;;18.50;10.50;;;;;;;19.15;29.39;99864.29;105212;1254;63778;-62
2023/12/20 02:12:42;;;;;;;17.80;10.60;;;;;;;19.16;29.47;99863.02;105039;1264;61586;-59
2023/12/20 02:15:09;;;;;;;10.40;4.10;;;;;;;19.16;29.46;99856.38;105405;1253;62962;-58
2023/12/20 02:17:37;;;;;;;14.40;10.20;;;;;;;19.16;29.56;99857.32;105216;1256;61391;-58
2023/12/20 02:20:06;;;;;;;8.80;4.40;;;;;;;19.10;29.66;99857.27;105339;1253;60319;-57
2023/12/20 02:22:34;;;;;;;15.20;10.30;;;;;;;19.06;29.61;99856.49;105212;1253;63626;-59
2023/12/20 02:25:01;;;;;;;14.90;9.90;;;;;;;19.06;29.76;99855.55;105321;1254;61358;-59
2023/12/20 02:27:30;;;;;;;10.70;5.20;;;;;;;19.05;29.82;99847.84;105194;1256;62487;-60
2023/12/20 02:29:57;;;;;;;9.70;5.20;;;;;;;19.02;29.80;99845.10;106682;1258;60608;-58
2023/12/20 02:32:28;;;;;;;15.50;10.00;;;;;;;18.98;29.66;99837.64;105306;1254;60539;-59
2023/12/20 02:34:57;;;;;;;10.50;4.70;;;;;;;18.96;29.71;99835.40;105889;1258;64902;-60
2023/12/20 02:37:25;;;;;;;14.70;10.20;;;;;;;18.90;29.76;99837.43;105249;1258;60498;-60
2023/12/20 02:39:53;;;;;;;19.00;10.70;;;;;;;18.87;29.73;99836.35;105797;1257;62500;-59
2023/12/20 02:42:21;;;;;;;13.20;4.00;;;;;;;18.86;29.73;99830.39;105879;1253;60357;-62
2023/12/20 02:44:48;;;;;;;15.50;11.00;;;;;;;18.85;29.82;99830.77;105284;1253;60570;-60
2023/12/20 02:47:16;;;;;;;16.60;10.50;;;;;;;18.84;29.89;99824.66;105285;1253;65174;-61
2023/12/20 02:49:43;;;;;;;9.50;4.70;;;;;;;18.85;29.91;99820.29;105283;1256;61397;-62
2023/12/20 02:52:11;;;;;;;21.10;10.70;;;;;;;18.83;29.81;99815.17;105216;1256;63739;-59
2023/12/20 02:54:39;;;;;;;15.70;10.40;;;;;;;18.79;29.94;99814.59;105247;1258;60459;-60
2023/12/20 02:57:07;;;;;;;10.60;4.70;;;;;;;18.74;30.00;99818.54;105250;1255;60452;-61
2023/12/20 02:59:35;;;;;;;14.50;10.20;;;;;;;18.71;29.94;99815.36;105098;1253;64887;-60
2023/12/20 03:02:02;;;;;;;12.80;6.20;;;;;;;18.68;29.95;99809.45;105272;1253;61306;-60
2023/12/20 03:04:30;;;;;;;8.20;4.10;;;;;;;18.69;29.83;99807.43;105215;1256;63771;-61
2023/12/20 03:06:58;;;;;;;20.40;10.60;;;;;;;18.69;29.91;99807.64;105719;1258;60619;-63
2023/12/20 03:09:26;;;;;;;15.20;9.30;;;;;;;18.66;29.79;99808.49;105268;1258;60418;-61
2023/12/20 03:11:57;;;;;;;14.20;5.40;;;;;;;18.66;29.88;99806.36;105225;1253;63622;-62
2023/12/20 03:14:24;;;;;;;16.80;10.20;;;;;;;18.67;30.02;99802.83;105927;1258;60484;-60
2023/12/20 03:16:52;;;;;;;8.90;3.70;;;;;;;18.67;29.99;99795.27;105220;1253;62462;-60
2023/12/20 03:19:19;;;;;;;17.20;10.90;;;;;;;18.68;30.06;99794.80;105959;1253;60539;-59
2023/12/20 03:21:48;;;;;;;13.50;9.70;;;;;;;18.64;29.81;99794.05;105277;1258;61921;-61
2023/12/20 03:24:15;;;;;;;10.40;4.20;;;;;;;18.69;29.91;99789.14;105272;1254;65451;-60
2023/12/20 03:26:43;;;;;;;16.40;10.70;;;;;;;18.77;29.71;99796.15;105394;1253;61251;-61
2023/12/20 03:29:10;;;;;;;14.40;9.60;;;;;;;18.79;29.68;99796.41;105200;1253;63654;-59
2023/12/20 03:31:38;;;;;;;15.70;10.60;;;;;;;18.81;29.71;99805.55;105313;1257;60421;-61
2023/12/20 03:34:06;;;;;;;8.90;4.20;;;;;;;18.87;29.89;99813.95;105229;1258;60527;-60
2023/12/20 03:36:33;;;;;;;15.50;10.40;;;;;;;18.84;29.65;99815.68;105288;1258;64937;-59
2023/12/20 03:39:01;;;;;;;13.70;5.20;;;;;;;18.78;29.63;99810.88;105345;1259;60343;-59
2023/12/20 03:41:29;;;;;;;16.50;10.00;;;;;;;18.74;29.73;99808.38;105287;1256;64452;-59
2023/12/20 03:43:56;;;;;;;14.60;10.40;;;;;;;18.70;29.62;99813.84;105352;1253;60451;-62
2023/12/20 03:46:24;;;;;;;12.20;4.30;;;;;;;18.63;29.67;99816.80;105368;1253;60358;-61
2023/12/20 03:48:52;;;;;;;14.20;10.20;;;;;;;18.57;29.76;99819.33;105324;1259;63649;-56
2023/12/20 03:51:19;;;;;;;10.60;4.70;;;;;;;18.50;29.72;99821.10;105366;1258;61344;-55
2023/12/20 03:53:47;;;;;;;16.40;10.70;;;;;;;18.43;29.89;99822.04;105312;1254;62466;-54
2023/12/20 03:56:14;;;;;;;14.10;10.30;;;;;;;18.38;30.06;99824.02;105338;1254;60623;-60
2023/12/20 03:58:42;;;;;;;9.50;4.70;;;;;;;18.35;30.06;99818.50;105281;1253;60588;-60
2023/12/20 04:01:13;;;;;;;12.70;5.40;;;;;;;18.32;30.04;99818.67;105322;1256;64914;-60
2023/12/20 04:03:41;;;;;;;16.20;10.40;;;;;;;18.29;29.96;99814.09;105230;1256;61329;-59
2023/12/20 04:06:09;;;;;;;9.90;5.00;;;;;;;18.27;29.97;99814.48;105572;1258;62440;-56
2023/12/20 04:08:37;;;;;;;16.60;10.20;;;;;;;18.27;30.01;99817.55;105685;1253;60511;-59
2023/12/20 04:11:05;;;;;;;10.10;5.10;;;;;;;18.23;30.02;99810.14;105334;1253;60557;-58
2023/12/20 04:13:32;;;;;;;14.60;10.20;;;;;;;18.23;29.87;99805.91;105694;1253;64866;-57
2023/12/20 04:16:00;;;;;;;11.30;4.80;;;;;;;18.23;29.98;99800.06;105305;1258;60398;-57
2023/12/20 04:18:28;;;;;;;15.10;10.20;;;;;;;18.23;30.01;99797.73;105731;1254;64211;-61
2023/12/20 04:20:56;;;;;;;10.10;4.80;;;;;;;18.23;29.95;99792.35;106016;1258;60448;-63
2023/12/20 04:23:23;;;;;;;17.10;11.30;;;;;;;18.25;29.84;99796.84;105262;1253;60477;-62
2023/12/20 04:25:51;;;;;;;11.00;4.90;;;;;;;18.24;29.91;99800.48;105975;1253;64890;-68
2023/12/20 04:28:19;;;;;;;14.70;9.80;;;;;;;18.22;29.91;99798.56;105309;1258;61341;-64
2023/12/20 04:30:46;;;;;;;10.00;4.90;;;;;;;18.20;29.89;99797.36;105285;1259;62519;-65
2023/12/20 04:33:14;;;;;;;16.50;10.30;;;;;;;18.18;30.05;99803.98;105287;1259;60556;-62
2023/12/20 04:35:42;;;;;;;7.90;3.90;;;;;;;18.18;29.91;99810.77;105544;1259;60812;-57
2023/12/20 04:38:10;;;;;;;16.90;10.80;;;;;;;18.20;30.02;99808.58;105378;1253;64932;-61
2023/12/20 04:40:38;;;;;;;11.40;5.60;;;;;;;18.23;29.94;99808.08;105303;1262;61376;-60
2023/12/20 04:43:07;;;;;;;18.60;10.90;;;;;;;18.25;30.05;99814.79;105157;1253;63734;-60
2023/12/20 04:45:35;;;;;;;9.70;4.70;;;;;;;18.24;30.00;99828.08;105285;1258;61600;-60
2023/12/20 04:48:04;;;;;;;16.70;10.80;;;;;;;18.23;29.73;99831.88;104923;1258;60439;-59
2023/12/20 04:50:33;;;;;;;10.60;4.80;;;;;;;18.20;29.92;99830.20;105364;1257;64930;-59
2023/12/20 04:53:00;;;;;;;17.70;10.10;;;;;;;18.23;29.92;99827.39;105399;1255;61969;-56
2023/12/20 04:55:28;;;;;;;11.20;5.10;;;;;;;18.32;29.98;99825.89;105625;1258;62519;-60
2023/12/20 04:57:56;;;;;;;15.90;10.20;;;;;;;18.38;29.93;99826.24;105106;1259;61621;-61
2023/12/20 05:00:24;;;;;;;14.20;9.80;;;;;;;18.36;29.75;99819.91;105097;1253;60504;-60
2023/12/20 05:02:52;;;;;;;12.50;4.80;;;;;;;18.37;29.85;99813.20;105791;1256;65474;-60
2023/12/20 05:05:20;;;;;;;13.80;9.80;;;;;;;18.40;29.86;99808.15;106021;1258;60365;-61
2023/12/20 05:07:48;;;;;;;10.30;4.10;;;;;;;18.35;29.70;99806.78;105408;1259;62517;-61
2023/12/20 05:10:16;;;;;;;17.70;10.30;;;;;;;18.33;29.72;99812.67;105272;1258;60771;-58
2023/12/20 05:12:44;;;;;;;14.20;10.10;;;;;;;18.33;29.80;99813.44;105352;1254;60560;-60
2023/12/20 05:15:11;;;;;;;11.50;4.70;;;;;;;18.32;29.78;99809.90;105342;1258;63795;-58
2023/12/20 05:17:39;;;;;;;9.40;5.50;;;;;;;18.31;30.01;99814.69;105297;1258;61860;-59
2023/12/20 05:20:08;;;;;;;17.10;10.50;;;;;;;18.33;29.92;99816.43;105631;1255;63816;-56
2023/12/20 05:22:35;;;;;;;9.80;4.40;;;;;;;18.34;29.84;99815.38;105626;1259;60545;-59
2023/12/20 05:25:04;;;;;;;14.80;10.10;;;;;;;18.34;29.91;99817.88;105324;1257;60383;-58
2023/12/20 05:27:32;;;;;;;10.00;5.30;;;;;;;18.33;29.83;99818.73;105766;1258;63687;-63
2023/12/20 05:29:59;;;;;;;9.60;4.20;;;;;;;18.30;29.80;99822.64;105676;1255;60457;-60
2023/12/20 05:32:27;;;;;;;13.10;9.30;;;;;;;18.26;29.86;99821.90;105277;1254;63776;-61
2023/12/20 05:34:54;;;;;;;14.20;10.60;;;;;;;18.25;29.93;99827.77;105250;1258;60614;-62
2023/12/20 05:37:22;;;;;;;10.00;3.90;;;;;;;18.20;29.95;99818.67;105281;1258;60452;-56
2023/12/20 05:39:50;;;;;;;20.50;10.40;;;;;;;18.19;30.04;99821.83;105248;1254;64956;-57
2023/12/20 05:42:18;;;;;;;9.10;4.00;;;;;;;18.15;30.00;99821.66;105290;1258;60445;-71
2023/12/20 05:44:45;;;;;;;14.10;9.70;;;;;;;18.14;30.08;99821.73;105237;1259;63688;-70
2023/12/20 05:47:13;;;;;;;11.00;4.40;;;;;;;18.13;30.03;99823.11;105249;1255;60606;-65
2023/12/20 05:49:41;;;;;;;14.60;10.10;;;;;;;18.08;30.13;99826.41;105270;1255;60555;-64
2023/12/20 05:52:08;;;;;;;11.00;4.50;;;;;;;18.05;30.06;99822.55;105383;1255;63660;-60
2023/12/20 05:54:36;;;;;;;15.70;10.20;;;;;;;18.02;29.95;99816.61;105021;1259;61492;-56
2023/12/20 05:57:04;;;;;;;8.50;4.10;;;;;;;18.03;30.05;99813.69;109062;1256;62534;-60
2023/12/20 05:59:31;;;;;;;13.90;9.50;;;;;;;18.04;30.05;99810.92;109093;1253;58197;-59
2023/12/20 06:01:59;;;;;;;8.80;4.40;;;;;;;18.02;29.91;99808.81;106671;1258;60893;-56
2023/12/20 06:04:27;;;;;;;16.00;9.30;;;;;;;17.99;30.01;99806.56;104998;1259;63692;-60
2023/12/20 06:06:55;;;;;;;10.20;4.20;;;;;;;17.98;30.09;99805.50;105135;1262;61985;-59
2023/12/20 06:09:23;;;;;;;13.60;9.40;;;;;;;18.00;30.09;99805.14;105971;1259;62459;-59
2023/12/20 06:11:51;;;;;;;10.00;4.40;;;;;;;18.02;30.01;99807.80;107643;1258;59991;-56
2023/12/20 06:14:19;;;;;;;17.60;10.50;;;;;;;17.98;29.94;99814.09;105299;1259;60486;-60
2023/12/20 06:16:46;;;;;;;8.60;3.60;;;;;;;17.98;29.90;99811.59;105351;1260;63758;-58
2023/12/20 06:19:14;;;;;;;14.30;9.80;;;;;;;18.00;29.90;99809.77;105200;1258;61384;-57
2023/12/20 06:21:42;;;;;;;12.40;5.10;;;;;;;17.99;29.93;99813.03;105117;1257;72494;-57
2023/12/20 06:24:11;;;;;;;15.40;10.20;;;;;;;18.00;29.91;99819.35;105535;1256;60542;-59
2023/12/20 06:26:39;;;;;;;10.60;4.10;;;;;;;18.00;29.80;99819.81;106239;1258;60335;-62
2023/12/20 06:29:07;;;;;;;19.60;12.40;;;;;;;18.01;29.86;99818.67;105139;1260;64984;-61
2023/12/20 06:31:34;;;;;;;13.30;6.50;;;;;;;18.07;29.83;99822.80;105297;1254;61358;-60
2023/12/20 06:34:03;;;;;;;31.80;21.50;;;;;;;18.13;29.81;99824.89;105329;1257;63715;-62
2023/12/20 06:36:30;;;;;;;25.30;12.40;;;;;;;18.20;29.76;99832.23;105660;1258;60586;-58
2023/12/20 06:38:58;;;;;;;17.50;11.70;;;;;;;18.25;29.59;99834.95;105258;1256;60485;-68
2023/12/20 06:41:25;;;;;;;10.30;5.90;;;;;;;18.25;29.53;99838.63;105299;1254;63678;-61
2023/12/20 06:43:53;;;;;;;18.40;11.70;;;;;;;18.24;29.50;99839.31;106026;1254;60807;-67
2023/12/20 06:46:21;;;;;;;10.90;5.80;;;;;;;18.25;29.41;99837.45;105938;1261;62486;-62
2023/12/20 06:48:48;;;;;;;18.40;11.00;;;;;;;18.24;29.30;99829.73;105271;1259;60564;-61
2023/12/20 06:51:17;;;;;;;14.20;5.10;;;;;;;18.25;29.25;99824.13;105080;1257;402235;-64
2023/12/20 07:06:44;;;;;;;9.60;4.70;;;;;;;16.72;31.81;99824.14;102995;1283;603384;-68
2023/12/20 07:09:13;;;;;;;16.20;9.60;;;;;;;18.82;28.51;99815.77;104434;1272;127837;-62
2023/12/20 07:11:40;;;;;;;16.80;9.30;;;;;;;18.84;28.45;99816.80;104728;1265;59368;-67
2023/12/20 07:14:09;;;;;;;15.70;10.30;;;;;;;18.85;28.37;99816.44;104654;1268;63382;-69
2023/12/20 07:16:36;;;;;;;13.20;9.00;;;;;;;18.89;28.38;99810.80;104959;1264;61976;-68
2023/12/20 07:19:04;;;;;;;14.20;9.20;;;;;;;18.90;28.24;99806.05;104769;1266;63763;-63
2023/12/20 07:21:32;;;;;;;10.40;3.80;;;;;;;18.92;28.24;99800.64;104674;1267;59435;-67
2023/12/20 07:23:59;;;;;;;15.00;8.50;;;;;;;18.94;28.28;99803.13;105064;1266;59555;-68
2023/12/20 07:26:27;;;;;;;10.10;4.40;;;;;;;18.95;28.19;99806.15;105055;1266;63261;-63
2023/12/20 07:28:55;;;;;;;19.40;15.60;;;;;;;19.00;28.17;99811.07;104452;1269;61529;-68
2023/12/20 07:31:24;;;;;;;13.70;7.00;;;;;;;19.05;28.04;99807.44;105151;1269;63904;-62
2023/12/20 07:33:51;;;;;;;21.30;14.10;;;;;;;19.08;27.88;99808.23;104512;1266;60468;-66
2023/12/20 07:36:19;;;;;;;13.30;5.70;;;;;;;19.06;27.95;99809.89;105406;1264;59647;-64
2023/12/20 07:38:47;;;;;;;41.40;25.60;;;;;;;19.06;27.95;99804.08;104635;1266;64276;-70
2023/12/20 07:41:15;;;;;;;54.60;32.60;;;;;;;19.10;28.01;99805.17;104543;1264;61332;-64
2023/12/20 07:43:43;;;;;;;39.70;24.40;;;;;;;19.14;28.03;99795.96;104607;1265;63739;-62
2023/12/20 07:46:11;;;;;;;16.40;7.10;;;;;;;19.18;27.92;99786.11;104542;1267;59845;-57
2023/12/20 07:48:39;;;;;;;14.40;9.10;;;;;;;19.19;27.82;99778.81;104609;1267;59667;-61
2023/12/20 07:51:09;;;;;;;7.10;3.30;;;;;;;19.20;27.74;99776.77;104725;1264;62934;-61
2023/12/20 07:53:38;;;;;;;13.80;9.20;;;;;;;19.24;27.80;99779.05;104916;1266;61780;-59
2023/12/20 07:56:18;;;;;;;14.50;9.10;;;;;;;19.26;27.73;99787.69;104792;1265;74510;-61
2023/12/20 07:58:48;;;;;;;13.50;10.10;;;;;;;19.28;27.84;99786.06;104601;1264;59840;-61
2023/12/20 08:01:20;;;;;;;10.10;4.70;;;;;;;19.35;27.87;99783.56;105332;1266;59787;-61
2023/12/20 08:03:49;;;;;;;11.30;7.70;;;;;;;19.40;27.81;99778.02;106264;1266;64246;-61
2023/12/20 08:06:18;;;;;;;7.80;3.10;;;;;;;19.40;27.80;99774.98;107791;1266;61468;-60
2023/12/20 08:08:45;;;;;;;11.20;7.80;;;;;;;19.44;27.78;99778.83;105482;1264;63796;-60
2023/12/20 08:11:21;;;;;;;;;;;;;;;19.50;27.66;99781.48;106275;1265;59737;-62
2023/12/20 08:13:49;;;;;;;10.70;3.70;;;;;;;19.55;27.79;99778.96;104711;1269;59637;-61
2023/12/20 08:16:17;;;;;;;14.00;8.40;;;;;;;19.64;27.78;99780.91;104711;1266;64081;-60
2023/12/20 08:18:45;;;;;;;18.10;9.00;;;;;;;19.70;27.62;99779.27;105379;1266;60267;-59
2023/12/20 08:21:13;;;;;;;13.50;8.00;;;;;;;19.75;27.53;99779.23;104645;1267;62560;-58
2023/12/20 08:23:41;;;;;;;7.20;3.10;;;;;;;19.75;27.42;99784.44;104662;1264;59755;-59
2023/12/20 08:26:09;;;;;;;14.10;8.40;;;;;;;19.78;27.47;99783.15;104421;1266;59736;-59
2023/12/20 08:28:36;;;;;;;7.80;3.20;;;;;;;19.84;27.49;99786.26;104338;1266;64141;-59
2023/12/20 08:31:04;;;;;;;14.50;8.90;;;;;;;19.90;27.34;99790.19;106503;1266;60180;-56
2023/12/20 08:33:32;;;;;;;12.40;8.50;;;;;;;19.92;27.24;99795.92;104537;1267;63689;-59
2023/12/20 08:36:00;;;;;;;14.60;9.30;;;;;;;19.93;27.38;99789.23;104602;1266;59839;-55
2023/12/20 08:38:27;;;;;;;8.90;3.60;;;;;;;19.96;27.26;99787.46;104606;1266;60174;-56
2023/12/20 08:40:55;;;;;;;15.90;10.20;;;;;;;19.99;27.24;99783.41;104623;1265;63006;-60
2023/12/20 08:43:23;;;;;;;15.40;10.00;;;;;;;20.04;27.30;99780.64;105365;1253;61304;-55
2023/12/20 08:45:50;;;;;;;29.80;21.20;;;;;;;20.04;27.08;99781.38;105343;1253;62413;-58
2023/12/20 08:48:18;;;;;;;14.40;6.00;;;;;;;20.09;27.07;99772.93;105351;1257;59680;-58
2023/12/20 08:50:47;;;;;;;16.40;10.80;;;;;;;20.11;27.07;99768.39;105429;1253;59574;-59
2023/12/20 08:53:16;;;;;;;14.90;9.50;;;;;;;20.10;26.98;99763.98;105728;1253;64103;-59
2023/12/20 08:55:43;;;;;;;15.00;9.80;;;;;;;20.10;27.11;99766.61;105661;1253;61293;-59
2023/12/20 08:58:11;;;;;;;12.50;8.00;;;;;;;20.10;27.07;99768.70;105564;1257;64353;-57
2023/12/20 09:00:39;;;;;;;8.10;4.10;;;;;;;20.14;27.04;99762.80;105554;1252;59657;-61
2023/12/20 09:03:07;;;;;;;13.70;9.00;;;;;;;20.17;27.06;99760.02;105697;1253;59530;-57
2023/12/20 09:05:34;;;;;;;11.40;8.20;;;;;;;20.21;26.93;99753.13;105529;1254;64308;-59
2023/12/20 09:08:02;;;;;;;12.90;7.70;;;;;;;20.25;26.94;99746.64;105341;1254;61405;-60
2023/12/20 09:10:30;;;;;;;13.50;8.30;;;;;;;20.30;26.91;99743.41;105311;1258;63742;-59
2023/12/20 09:12:58;;;;;;;11.90;8.30;;;;;;;20.33;26.81;99735.23;105918;1254;59742;-63
2023/12/20 09:15:26;;;;;;;13.20;7.90;;;;;;;20.38;26.79;99726.20;105995;1253;59691;-59
2023/12/20 09:17:53;;;;;;;15.80;8.90;;;;;;;20.42;26.69;99725.14;106125;1257;64187;-61
2023/12/20 09:20:23;;;;;;;12.90;8.40;;;;;;;20.47;26.61;99721.69;105481;1255;60241;-55
2023/12/20 09:22:51;;;;;;;12.30;7.70;;;;;;;20.52;26.63;99712.23;105332;1254;63837;-58
2023/12/20 09:25:18;;;;;;;7.50;3.70;;;;;;;20.55;26.69;99711.95;105330;1254;59729;-59
2023/12/20 09:27:46;;;;;;;13.30;8.10;;;;;;;20.60;26.78;99709.53;105375;1257;59625;-58
2023/12/20 09:30:14;;;;;;;13.20;8.60;;;;;;;20.67;26.70;99711.17;105583;1256;64155;-59
2023/12/20 09:32:57;;;;;;;11.70;7.80;;;;;;;20.76;26.77;99707.76;105459;1254;61539;-59
2023/12/20 09:35:25;;;;;;;13.80;8.40;;;;;;;20.83;26.65;99703.27;106101;1254;63759;-59
2023/12/20 09:37:54;;;;;;;11.40;7.90;;;;;;;20.85;26.61;99692.55;105523;1260;59698;-58
2023/12/20 09:40:21;;;;;;;13.70;8.90;;;;;;;20.91;26.59;99690.83;105405;1257;59577;-60
2023/12/20 09:43:03;;;;;;;14.90;8.90;;;;;;;20.96;26.75;99689.07;105371;1252;64259;-60
2023/12/20 09:45:32;;;;;;;13.60;9.10;;;;;;;21.05;26.64;99693.74;105880;1254;72693;-60
2023/12/20 09:48:00;;;;;;;12.70;8.40;;;;;;;21.07;26.39;99693.62;105808;1254;63815;-59
2023/12/20 09:50:27;;;;;;;14.40;8.50;;;;;;;21.09;26.32;99690.04;105499;1253;59630;-60
2023/12/20 09:52:58;;;;;;;13.70;8.80;;;;;;;21.13;26.21;99691.38;106803;1253;59621;-58
2023/12/20 09:55:25;;;;;;;22.20;12.90;;;;;;;21.16;26.11;99693.73;105912;1251;62975;-59
2023/12/20 09:57:53;;;;;;;16.70;11.00;;;;;;;21.20;26.18;99689.89;105888;1254;61378;-57
2023/12/20 10:00:21;;;;;;;14.30;9.80;;;;;;;21.27;25.97;99695.42;106256;1254;64324;-58
2023/12/20 10:02:58;;;;;;;13.10;8.40;;;;;;;21.31;25.75;99695.20;106006;1254;59634;-60
2023/12/20 10:05:31;;;;;;;16.90;11.40;;;;;;;21.35;25.64;99696.44;106218;1253;59373;-61
2023/12/20 10:08:00;;;;;;;18.20;13.90;;;;;;;21.36;25.84;99698.65;105474;1257;63051;-59
2023/12/20 10:10:28;;;;;;;16.20;13.60;;;;;;;21.41;25.83;99701.31;105293;1254;72507;-59
2023/12/20 10:13:11;;;;;;;30.90;20.30;;;;;;;21.48;25.90;99695.39;105339;1259;63672;-57
2023/12/20 10:15:40;;;;;;;12.00;8.00;;;;;;;21.56;25.80;99696.93;105748;1254;59701;-57
2023/12/20 10:18:10;;;;;;;11.40;7.50;;;;;;;21.60;25.54;99702.31;105676;1254;59747;-60
2023/12/20 10:20:40;;;;;;;11.20;7.30;;;;;;;21.65;25.48;99699.13;105659;1254;63057;-55
2023/12/20 10:23:07;;;;;;;12.90;7.40;;;;;;;21.66;25.23;99700.40;105590;1259;60223;-57
2023/12/20 10:25:35;;;;;;;11.10;7.10;;;;;;;21.66;25.30;99696.73;105311;1254;64354;-55
2023/12/20 10:28:11;;;;;;;13.30;6.90;;;;;;;21.68;25.43;99692.45;105777;1255;59714;-57
2023/12/20 10:30:39;;;;;;;10.90;6.90;;;;;;;21.75;25.44;99692.29;105533;1254;59937;-55
2023/12/20 10:33:08;;;;;;;10.80;7.10;;;;;;;21.82;25.35;99694.40;105596;1254;63042;-61
2023/12/20 10:35:36;;;;;;;12.10;7.00;;;;;;;21.86;25.16;99691.63;105547;1254;61360;-61
2023/12/20 10:38:05;;;;;;;15.60;8.50;;;;;;;21.90;25.01;99693.98;106823;1253;64890;-55
2023/12/20 10:40:36;;;;;;;12.50;7.40;;;;;;;21.92;25.07;99690.96;105626;1253;60873;-61
2023/12/20 10:43:05;;;;;;;12.60;7.60;;;;;;;21.97;25.00;99692.31;108168;1254;59330;-59
2023/12/20 10:45:33;;;;;;;11.50;6.90;;;;;;;21.97;24.85;99683.69;105839;1257;64562;-59
2023/12/20 10:48:01;;;;;;;13.20;7.80;;;;;;;21.99;24.70;99686.11;105774;1257;60306;-57
2023/12/20 10:50:30;;;;;;;10.80;6.70;;;;;;;22.01;24.70;99687.08;105929;1254;62515;-56
2023/12/20 10:52:59;;;;;;;9.40;6.40;;;;;;;22.03;24.75;99689.25;106012;1254;59654;-56
2023/12/20 10:55:27;;;;;;;10.20;6.30;;;;;;;22.03;24.65;99691.86;105859;1254;59729;-58
2023/12/20 10:58:07;;;;;;;10.90;7.10;;;;;;;22.05;24.45;99685.04;105335;1254;65078;-56
2023/12/20 11:00:38;;;;;;;12.30;7.00;;;;;;;22.12;24.45;99676.77;105589;1254;63693;-57
2023/12/20 11:03:06;;;;;;;13.90;7.00;;;;;;;22.18;24.63;99670.79;105806;1257;62442;-55
2023/12/20 11:05:58;;;;;;;10.90;6.30;;;;;;;22.21;24.68;99667.63;105340;1257;59688;-54
2023/12/20 11:08:30;;;;;;;11.10;6.70;;;;;;;22.23;24.51;99655.95;105950;1258;62235;-55
2023/12/20 11:11:00;;;;;;;11.80;7.10;;;;;;;22.20;24.58;99659.90;105833;1254;75261;-55
2023/12/20 11:13:34;;;;;;;14.90;7.10;;;;;;;22.20;24.69;99657.91;105931;1257;61391;-55
2023/12/20 11:16:02;;;;;;;11.90;7.40;;;;;;;22.21;24.65;99651.52;106538;1254;63736;-59
2023/12/20 11:18:30;;;;;;;10.60;6.60;;;;;;;22.20;24.63;99643.27;105821;1254;62272;-59
2023/12/20 11:21:03;;;;;;;11.40;6.80;;;;;;;22.22;24.81;99646.40;105782;1258;62626;-60
2023/12/20 11:23:33;;;;;;;11.80;7.10;;;;;;;22.27;24.78;99636.77;105769;1254;64980;-56
2023/12/20 11:26:02;;;;;;;11.20;6.70;;;;;;;22.35;24.82;99639.94;105769;1254;61819;-59
2023/12/20 11:28:30;;;;;;;12.20;7.00;;;;;;;22.42;24.74;99639.34;105880;1254;64141;-58
2023/12/20 11:31:01;;;;;;;12.00;6.60;;;;;;;22.44;24.44;99640.98;105352;1266;60533;-60
2023/12/20 11:33:31;;;;;;;11.00;6.60;;;;;;;22.46;24.47;99632.80;105993;1257;60447;-59
2023/12/20 11:36:00;;;;;;;10.80;6.00;;;;;;;22.53;24.43;99626.27;105847;1252;75967;-61